createdAt,value
2023-04-18T00:01:31.805Z,102140.31
2023-04-18T00:04:01.903Z,102144.78
2023-04-18T00:06:29.940Z,102151.56
2023-04-18T00:08:57.871Z,102146.38
2023-04-18T00:11:25.818Z,102144.94
2023-04-18T00:13:53.698Z,102138.69
2023-04-18T00:16:22.336Z,102146.38
2023-04-18T00:18:50.527Z,102139.09
2023-04-18T00:21:19.874Z,102147.59
2023-04-18T00:23:47.685Z,102145.09
2023-04-18T00:26:15.610Z,102149.03
2023-04-18T00:28:45.811Z,102146.13
2023-04-18T00:31:13.704Z,102147.50
2023-04-18T00:33:41.603Z,102148.78
2023-04-18T00:36:10.078Z,102145.25
2023-04-18T00:38:39.592Z,102143.47
2023-04-18T00:41:08.582Z,102143.00
2023-04-18T00:43:37.114Z,102146.25
2023-04-18T00:46:04.981Z,102146.50
2023-04-18T00:48:33.019Z,102149.41
2023-04-18T00:51:01.633Z,102149.03
2023-04-18T00:53:30.754Z,102149.09
2023-04-18T00:56:00.197Z,102149.56
2023-04-18T00:58:28.444Z,102143.72
2023-04-18T01:00:56.230Z,102148.69
2023-04-18T01:03:24.185Z,102143.50
2023-04-18T01:05:52.344Z,102149.81
2023-04-18T01:08:21.985Z,102141.69
2023-04-18T01:10:53.186Z,102134.25
2023-04-18T01:13:22.532Z,102137.66
2023-04-18T01:15:51.764Z,102142.66
2023-04-18T01:18:20.862Z,102136.88
2023-04-18T01:20:50.032Z,102141.97
2023-04-18T01:23:19.281Z,102137.50
2023-04-18T01:25:50.410Z,102128.25
2023-04-18T01:28:21.260Z,102144.59
2023-04-18T01:30:49.709Z,102138.22
2023-04-18T01:33:17.944Z,102139.00
2023-04-18T01:35:48.257Z,102134.78
2023-04-18T01:38:16.157Z,102138.63
2023-04-18T01:40:44.070Z,102145.59
2023-04-18T01:43:13.322Z,102127.31
2023-04-18T01:45:41.309Z,102128.59
2023-04-18T01:48:10.041Z,102139.47
2023-04-18T01:50:38.189Z,102120.75
2023-04-18T01:53:06.210Z,102136.56
2023-04-18T01:55:34.089Z,102128.41
2023-04-18T01:58:01.916Z,102119.97
2023-04-18T02:00:31.094Z,102127.03
2023-04-18T02:02:59.775Z,102121.78
2023-04-18T02:05:28.124Z,102123.53
2023-04-18T02:07:56.046Z,102128.06
2023-04-18T02:10:24.080Z,102120.31
2023-04-18T02:12:51.974Z,102122.00
2023-04-18T02:15:20.893Z,102120.75
2023-04-18T02:17:50.534Z,102122.59
2023-04-18T02:20:18.425Z,102123.47
2023-04-18T02:22:46.408Z,102130.66
2023-04-18T02:25:14.342Z,102124.28
2023-04-18T02:27:42.989Z,102120.25
2023-04-18T02:30:11.634Z,102134.91
2023-04-18T02:32:39.463Z,102124.97
2023-04-18T02:35:09.489Z,102131.59
2023-04-18T02:37:37.436Z,102128.72
2023-04-18T02:40:07.224Z,102131.28
2023-04-18T02:42:35.151Z,102132.53
2023-04-18T02:45:03.090Z,102130.25
2023-04-18T02:47:35.387Z,102138.13
2023-04-18T02:50:11.073Z,102135.41
2023-04-18T02:52:39.237Z,102138.41
2023-04-18T02:55:08.189Z,102138.94
2023-04-18T02:57:40.391Z,102137.81
2023-04-18T03:00:28.408Z,102138.69
2023-04-18T03:03:16.280Z,102127.69
2023-04-18T03:06:14.562Z,102132.69
2023-04-18T03:08:43.211Z,102138.06
2023-04-18T03:11:11.296Z,102140.19
2023-04-18T03:13:39.505Z,102139.97
2023-04-18T03:16:07.999Z,102143.72
2023-04-18T03:18:36.185Z,102146.50
2023-04-18T03:21:04.087Z,102146.03
2023-04-18T03:23:35.312Z,102135.78
2023-04-18T03:26:09.147Z,102151.00
2023-04-18T03:28:40.078Z,102143.28
2023-04-18T03:31:08.747Z,102149.16
2023-04-18T03:33:42.246Z,102147.75
2023-04-18T03:36:12.267Z,102141.75
2023-04-18T03:38:43.038Z,102147.00
2023-04-18T03:41:11.262Z,102150.31
2023-04-18T03:43:39.793Z,102154.50
2023-04-18T03:46:07.936Z,102152.63
2023-04-18T03:48:37.387Z,102148.88
2023-04-18T03:51:09.799Z,102152.38
2023-04-18T03:53:39.070Z,102157.94
2023-04-18T03:56:08.644Z,102167.13
2023-04-18T03:58:49.124Z,102161.81
2023-04-18T04:01:17.804Z,102159.50
2023-04-18T04:03:45.863Z,102158.94
2023-04-18T04:06:14.021Z,102162.63
2023-04-18T04:08:41.918Z,102161.72
2023-04-18T04:11:11.562Z,102165.78
2023-04-18T04:13:40.393Z,102162.91
2023-04-18T04:16:09.249Z,102165.50
2023-04-18T04:18:38.098Z,102162.31
2023-04-18T04:21:06.988Z,102152.59
2023-04-18T04:23:48.997Z,102168.34
2023-04-18T04:26:31.742Z,102164.06
2023-04-18T04:29:05.028Z,102163.22
2023-04-18T04:31:34.935Z,102168.09
2023-04-18T04:34:03.487Z,102162.56
2023-04-18T04:36:33.511Z,102169.38
2023-04-18T04:39:04.141Z,102177.28
2023-04-18T04:41:50.035Z,102175.50
2023-04-18T04:44:22.063Z,102177.56
2023-04-18T04:46:50.692Z,102183.94
2023-04-18T04:49:22.614Z,102181.78
2023-04-18T04:51:50.775Z,102178.97
2023-04-18T04:54:18.602Z,102183.41
2023-04-18T04:56:46.764Z,102184.56
2023-04-18T04:59:16.416Z,102183.09
2023-04-18T05:01:46.540Z,102183.16
2023-04-18T05:04:17.212Z,102178.94
2023-04-18T05:06:46.682Z,102189.31
2023-04-18T05:09:14.637Z,102199.19
2023-04-18T05:11:42.434Z,102199.25
2023-04-18T05:14:10.213Z,102199.09
2023-04-18T05:16:39.989Z,102201.91
2023-04-18T05:19:07.844Z,102199.78
2023-04-18T05:21:36.087Z,102199.97
2023-04-18T05:24:04.126Z,102198.25
2023-04-18T05:26:32.129Z,102204.44
2023-04-18T05:29:00.115Z,102204.97
2023-04-18T05:31:28.160Z,102207.22
2023-04-18T05:33:57.577Z,102210.75
2023-04-18T05:36:25.542Z,102216.16
2023-04-18T05:38:53.472Z,102210.38
2023-04-18T05:41:21.315Z,102211.00
2023-04-18T05:43:58.097Z,102219.03
2023-04-18T05:46:30.385Z,102216.41
2023-04-18T05:48:59.896Z,102221.59
2023-04-18T05:51:28.621Z,102224.03
2023-04-18T05:53:56.531Z,102215.91
2023-04-18T05:56:24.396Z,102224.50
2023-04-18T05:58:52.449Z,102225.03
2023-04-18T06:01:20.279Z,102217.13
2023-04-18T06:03:48.597Z,102231.50
2023-04-18T06:06:18.449Z,102230.84
2023-04-18T06:08:46.476Z,102231.63
2023-04-18T06:11:15.296Z,102234.03
2023-04-18T06:13:43.205Z,102237.13
2023-04-18T06:16:11.192Z,102237.22
2023-04-18T06:18:39.013Z,102224.31
2023-04-18T06:21:07.310Z,102233.06
2023-04-18T06:23:43.848Z,102241.31
2023-04-18T06:26:12.838Z,102245.81
2023-04-18T06:28:40.865Z,102242.53
2023-04-18T06:31:22.431Z,102249.22
2023-04-18T06:33:52.750Z,102246.00
2023-04-18T06:36:21.359Z,102245.22
2023-04-18T06:38:50.845Z,102255.41
2023-04-18T06:41:18.809Z,102252.84
2023-04-18T06:43:59.817Z,102258.81
2023-04-18T06:46:31.428Z,102253.22
2023-04-18T06:48:59.305Z,102250.31
2023-04-18T06:51:27.377Z,102251.06
2023-04-18T06:53:56.535Z,102253.19
2023-04-18T06:56:24.527Z,102264.00
2023-04-18T06:58:52.936Z,102256.06
2023-04-18T07:01:21.086Z,102262.06
2023-04-18T07:03:49.113Z,102270.41
2023-04-18T07:06:17.081Z,102272.44
2023-04-18T07:08:44.926Z,102277.28
2023-04-18T07:11:14.346Z,102278.78
2023-04-18T07:13:43.105Z,102280.69
2023-04-18T07:16:11.021Z,102269.47
2023-04-18T07:18:38.895Z,102276.97
2023-04-18T07:21:08.026Z,102273.53
2023-04-18T07:23:36.032Z,102273.91
2023-04-18T07:26:05.800Z,102269.31
2023-04-18T07:28:35.198Z,102270.75
2023-04-18T07:31:04.591Z,102273.78
2023-04-18T07:33:33.754Z,102269.59
2023-04-18T07:36:01.881Z,102273.97
2023-04-18T07:38:29.779Z,102266.56
2023-04-18T07:40:58.256Z,102273.84
2023-04-18T07:43:26.136Z,102280.72
2023-04-18T07:45:55.580Z,102281.91
2023-04-18T07:48:25.044Z,102277.78
2023-04-18T07:50:53.120Z,102278.91
2023-04-18T07:53:21.227Z,102281.88
2023-04-18T07:55:49.257Z,102276.31
2023-04-18T07:58:17.207Z,102283.31
2023-04-18T08:00:45.204Z,102286.34
2023-04-18T08:03:14.559Z,102285.63
2023-04-18T08:05:43.701Z,102292.25
2023-04-18T08:08:12.812Z,102292.94
2023-04-18T08:10:40.672Z,102291.78
2023-04-18T08:13:09.451Z,102291.38
2023-04-18T08:15:37.435Z,102292.22
2023-04-18T08:18:05.428Z,102283.72
2023-04-18T08:20:36.952Z,102297.97
2023-04-18T08:23:08.447Z,102296.44
2023-04-18T08:25:37.574Z,102289.59
2023-04-18T08:28:05.890Z,102282.34
2023-04-18T08:30:34.297Z,102291.19
2023-04-18T08:33:02.560Z,102284.41
2023-04-18T08:35:30.711Z,102281.34
2023-04-18T08:37:59.873Z,102287.84
2023-04-18T08:40:29.812Z,102280.09
2023-04-18T08:42:58.615Z,102289.53
2023-04-18T08:45:26.475Z,102280.56
2023-04-18T08:47:56.006Z,102293.34
2023-04-18T08:50:24.199Z,102286.84
2023-04-18T08:52:56.032Z,102274.34
2023-04-18T08:55:25.505Z,102288.31
2023-04-18T08:57:54.744Z,102277.03
2023-04-18T09:00:23.589Z,102281.72
2023-04-18T09:02:56.548Z,102295.91
2023-04-18T09:05:26.812Z,102289.94
2023-04-18T09:07:56.232Z,102288.03
2023-04-18T09:10:30.912Z,102287.75
2023-04-18T09:13:01.004Z,102282.34
2023-04-18T09:15:29.949Z,102294.06
2023-04-18T09:17:59.177Z,102286.16
2023-04-18T09:20:34.706Z,102287.06
2023-04-18T09:23:04.774Z,102288.59
2023-04-18T09:25:39.809Z,102279.13
2023-04-18T09:28:24.369Z,102289.66
2023-04-18T09:30:53.112Z,102284.22
2023-04-18T09:33:28.263Z,102284.75
2023-04-18T09:35:56.383Z,102292.78
2023-04-18T09:38:41.835Z,102293.50
2023-04-18T09:41:11.667Z,102293.13
2023-04-18T09:43:39.753Z,102296.66
2023-04-18T09:46:08.854Z,102291.28
2023-04-18T09:48:37.145Z,102287.81
2023-04-18T09:51:08.218Z,102295.50
2023-04-18T09:53:39.503Z,102285.09
2023-04-18T09:56:10.827Z,102295.69
2023-04-18T09:58:42.394Z,102288.16
2023-04-18T10:01:13.284Z,102288.13
2023-04-18T10:03:45.470Z,102290.94
2023-04-18T10:06:16.940Z,102290.22
2023-04-18T10:08:45.863Z,102295.53
2023-04-18T10:11:13.793Z,102297.44
2023-04-18T10:13:48.328Z,102285.28
2023-04-18T10:16:17.096Z,102292.06
2023-04-18T10:18:45.157Z,102289.25
2023-04-18T10:21:13.201Z,102281.16
2023-04-18T10:23:42.002Z,102288.75
2023-04-18T10:26:10.978Z,102294.41
2023-04-18T10:28:54.641Z,102294.19
2023-04-18T10:31:23.841Z,102292.63
2023-04-18T10:34:03.908Z,102292.69
2023-04-18T10:37:04.577Z,102296.53
2023-04-18T10:39:47.841Z,102286.75
2023-04-18T10:42:15.751Z,102288.56
2023-04-18T10:44:45.068Z,102286.06
2023-04-18T10:47:23.010Z,102290.38
2023-04-18T10:49:58.949Z,102285.81
2023-04-18T10:52:28.339Z,102286.69
2023-04-18T10:55:09.498Z,102280.59
2023-04-18T10:57:41.794Z,102264.72
2023-04-18T11:00:14.093Z,102280.28
2023-04-18T11:02:51.126Z,102281.41
2023-04-18T11:05:24.250Z,102261.22
2023-04-18T11:07:52.297Z,102273.16
2023-04-18T11:10:22.534Z,102274.47
2023-04-18T11:12:50.568Z,102279.22
2023-04-18T11:15:22.474Z,102271.13
2023-04-18T11:17:58.185Z,102275.50
2023-04-18T11:20:26.742Z,102281.16
2023-04-18T11:22:56.777Z,102263.72
2023-04-18T11:25:29.369Z,102262.06
2023-04-18T11:28:00.381Z,102259.81
2023-04-18T11:30:36.897Z,102268.09
2023-04-18T11:33:07.345Z,102274.97
2023-04-18T11:35:38.653Z,102258.66
2023-04-18T11:38:06.777Z,102264.66
2023-04-18T11:40:35.311Z,102264.06
2023-04-18T11:43:04.888Z,102265.44
2023-04-18T11:45:34.666Z,102255.50
2023-04-18T11:48:02.739Z,102263.88
2023-04-18T11:50:36.790Z,102264.00
2023-04-18T11:53:04.797Z,102258.78
2023-04-18T11:55:33.052Z,102275.44
2023-04-18T11:58:03.158Z,102266.94
2023-04-18T12:00:35.383Z,102267.91
2023-04-18T12:03:05.977Z,102268.44
2023-04-18T12:05:37.364Z,102263.13
2023-04-18T12:08:11.389Z,102266.66
2023-04-18T12:10:46.142Z,102267.44
2023-04-18T12:13:14.353Z,102276.84
2023-04-18T12:15:45.089Z,102269.25
2023-04-18T12:18:15.341Z,102258.88
2023-04-18T12:20:50.370Z,102249.13
2023-04-18T12:23:35.519Z,102250.81
2023-04-18T12:26:04.524Z,102254.47
2023-04-18T12:28:32.981Z,102240.06
2023-04-18T12:31:02.489Z,102243.72
2023-04-18T12:33:31.694Z,102244.25
2023-04-18T12:36:00.164Z,102255.88
2023-04-18T12:38:27.976Z,102246.88
2023-04-18T12:40:55.986Z,102254.78
2023-04-18T12:43:23.849Z,102257.00
2023-04-18T12:45:51.747Z,102259.22
2023-04-18T12:48:21.114Z,102245.44
2023-04-18T12:50:49.187Z,102261.34
2023-04-18T12:53:17.053Z,102248.66
2023-04-18T12:55:44.909Z,102260.00
2023-04-18T12:58:15.216Z,102246.88
2023-04-18T13:00:43.332Z,102247.06
2023-04-18T13:03:13.211Z,102256.25
2023-04-18T13:05:43.323Z,102243.22
2023-04-18T13:08:16.769Z,102256.31
2023-04-18T13:10:46.296Z,102242.97
2023-04-18T13:13:14.727Z,102244.97
2023-04-18T13:15:43.013Z,102253.50
2023-04-18T13:18:11.100Z,102246.97
2023-04-18T13:20:39.196Z,102242.09
2023-04-18T13:23:08.670Z,102242.28
2023-04-18T13:25:36.610Z,102247.47
2023-04-18T13:28:04.602Z,102242.69
2023-04-18T13:30:35.766Z,102258.19
2023-04-18T13:33:03.965Z,102244.25
2023-04-18T13:35:32.059Z,102250.94
2023-04-18T13:38:00.229Z,102248.78
2023-04-18T13:40:29.795Z,102249.88
2023-04-18T13:42:57.970Z,102255.03
2023-04-18T13:45:25.919Z,102234.13
2023-04-18T13:47:54.280Z,102247.91
2023-04-18T13:50:23.174Z,102241.81
2023-04-18T13:52:51.876Z,102243.44
2023-04-18T13:55:19.841Z,102237.75
2023-04-18T13:57:49.234Z,102229.56
2023-04-18T14:00:19.276Z,102236.66
2023-04-18T14:02:47.396Z,102225.28
2023-04-18T14:05:15.907Z,102221.69
2023-04-18T14:07:44.052Z,102219.00
2023-04-18T14:10:12.571Z,102217.34
2023-04-18T14:12:41.049Z,102218.72
2023-04-18T14:15:11.810Z,102228.84
2023-04-18T14:17:40.038Z,102218.66
2023-04-18T14:20:09.430Z,102206.22
2023-04-18T14:22:37.493Z,102209.38
2023-04-18T14:25:06.203Z,102206.00
2023-04-18T14:27:34.112Z,102203.72
2023-04-18T14:30:02.050Z,102211.84
2023-04-18T14:32:31.382Z,102212.19
2023-04-18T14:34:59.952Z,102206.69
2023-04-18T14:37:28.135Z,102201.66
2023-04-18T14:39:55.985Z,102212.66
2023-04-18T14:42:23.840Z,102200.47
2023-04-18T14:44:52.016Z,102195.94
2023-04-18T14:47:19.963Z,102193.28
2023-04-18T14:49:49.276Z,102203.88
2023-04-18T14:52:17.114Z,102199.41
2023-04-18T14:54:44.955Z,102194.91
2023-04-18T14:57:13.305Z,102203.31
2023-04-18T14:59:41.139Z,102195.81
2023-04-18T15:02:09.116Z,102195.13
2023-04-18T15:04:37.330Z,102187.56
2023-04-18T15:07:07.226Z,102192.34
2023-04-18T15:09:37.530Z,102192.16
2023-04-18T15:12:06.545Z,102181.13
2023-04-18T15:14:34.940Z,102175.22
2023-04-18T15:17:03.152Z,102163.31
2023-04-18T15:19:31.922Z,102155.88
2023-04-18T15:22:00.000Z,102164.06
2023-04-18T15:24:29.241Z,102158.34
2023-04-18T15:26:57.438Z,102164.06
2023-04-18T15:29:25.420Z,102173.41
2023-04-18T15:31:53.482Z,102162.78
2023-04-18T15:34:21.574Z,102175.41
2023-04-18T15:36:49.868Z,102166.06
2023-04-18T15:39:21.826Z,102161.97
2023-04-18T15:41:53.247Z,102165.56
2023-04-18T15:44:21.365Z,102190.13
2023-04-18T15:46:49.768Z,102190.41
2023-04-18T15:49:18.346Z,102183.16
2023-04-18T15:51:46.452Z,102186.78
2023-04-18T15:54:14.594Z,102185.59
2023-04-18T15:56:44.664Z,102181.19
2023-04-18T15:59:14.681Z,102177.00
2023-04-18T16:01:45.635Z,102171.81
2023-04-18T16:04:14.421Z,102174.78
2023-04-18T16:06:42.874Z,102174.31
2023-04-18T16:09:10.809Z,102185.91
2023-04-18T16:11:38.815Z,102190.25
2023-04-18T16:14:06.766Z,102184.78
2023-04-18T16:16:36.437Z,102187.25
2023-04-18T16:19:05.478Z,102182.19
2023-04-18T16:21:33.679Z,102191.13
2023-04-18T16:24:01.800Z,102193.97
2023-04-18T16:26:30.205Z,102200.31
2023-04-18T16:28:58.210Z,102195.50
2023-04-18T16:31:26.195Z,102187.53
2023-04-18T16:33:55.985Z,102191.91
2023-04-18T16:36:24.190Z,102186.81
2023-04-18T16:38:52.451Z,102183.34
2023-04-18T16:41:20.577Z,102186.41
2023-04-18T16:43:48.566Z,102197.97
2023-04-18T16:46:16.761Z,102198.47
2023-04-18T16:48:45.304Z,102194.81
2023-04-18T16:51:14.721Z,102191.47
2023-04-18T16:53:43.140Z,102196.91
2023-04-18T16:56:11.376Z,102199.97
2023-04-18T16:58:39.565Z,102192.03
2023-04-18T17:01:08.322Z,102192.16
2023-04-18T17:03:36.618Z,102195.50
2023-04-18T17:06:05.974Z,102191.56
2023-04-18T17:08:35.968Z,102209.34
2023-04-18T17:11:04.315Z,102202.16
2023-04-18T17:13:32.496Z,102190.59
2023-04-18T17:16:00.869Z,102196.22
2023-04-18T17:18:29.395Z,102195.69
2023-04-18T17:20:57.659Z,102192.94
2023-04-18T17:23:25.825Z,102197.53
2023-04-18T17:25:55.809Z,102208.66
2023-04-18T17:28:25.183Z,102206.22
2023-04-18T17:30:53.805Z,102213.50
2023-04-18T17:33:22.063Z,102208.88
2023-04-18T17:35:50.813Z,102198.00
2023-04-18T17:38:18.942Z,102208.16
2023-04-18T17:40:47.389Z,102217.69
2023-04-18T17:43:17.238Z,102215.22
2023-04-18T17:45:45.441Z,102215.84
2023-04-18T17:48:13.707Z,102217.78
2023-04-18T17:50:42.749Z,102216.59
2023-04-18T17:53:12.369Z,102216.22
2023-04-18T17:55:41.805Z,102209.63
2023-04-18T17:58:09.992Z,102207.34
2023-04-18T18:00:39.724Z,102213.03
2023-04-18T18:03:09.636Z,102211.72
2023-04-18T18:05:38.000Z,102216.19
2023-04-18T18:08:06.761Z,102218.63
2023-04-18T18:10:35.436Z,102212.97
2023-04-18T18:13:03.675Z,102218.97
2023-04-18T18:15:32.598Z,102216.72
2023-04-18T18:18:03.258Z,102219.78
2023-04-18T18:20:32.211Z,102215.78
2023-04-18T18:23:00.612Z,102205.59
2023-04-18T18:25:29.452Z,102214.78
2023-04-18T18:27:57.770Z,102227.03
2023-04-18T18:30:26.271Z,102208.06
2023-04-18T18:32:54.557Z,102216.81
2023-04-18T18:35:24.502Z,102211.38
2023-04-18T18:37:53.259Z,102214.03
2023-04-18T18:40:21.693Z,102226.88
2023-04-18T18:42:51.452Z,102229.13
2023-04-18T18:45:21.186Z,102230.28
2023-04-18T18:47:49.765Z,102225.84
2023-04-18T18:50:18.001Z,102226.84
2023-04-18T18:52:47.632Z,102226.22
2023-04-18T18:55:16.444Z,102219.78
2023-04-18T18:57:44.686Z,102222.69
2023-04-18T19:00:13.876Z,102235.47
2023-04-18T19:02:42.223Z,102238.97
2023-04-18T19:05:12.561Z,102233.28
2023-04-18T19:07:42.373Z,102231.69
2023-04-18T19:10:12.303Z,102241.03
2023-04-18T19:12:40.485Z,102237.53
2023-04-18T19:15:09.794Z,102239.41
2023-04-18T19:17:38.052Z,102241.28
2023-04-18T19:20:07.556Z,102240.91
2023-04-18T19:22:35.779Z,102243.22
2023-04-18T19:25:04.310Z,102247.44
2023-04-18T19:27:34.102Z,102248.28
2023-04-18T19:30:02.807Z,102257.47
2023-04-18T19:32:31.874Z,102250.56
2023-04-18T19:35:00.407Z,102250.31
2023-04-18T19:37:28.648Z,102260.78
2023-04-18T19:39:56.764Z,102254.63
2023-04-18T19:42:24.936Z,102245.63
2023-04-18T19:44:54.435Z,102248.97
2023-04-18T19:47:22.459Z,102256.59
2023-04-18T19:49:50.925Z,102264.31
2023-04-18T19:52:18.924Z,102252.78
2023-04-18T19:54:46.829Z,102264.31
2023-04-18T19:57:14.919Z,102262.59
2023-04-18T19:59:43.265Z,102258.06
2023-04-18T20:02:12.675Z,102271.75
2023-04-18T20:04:41.796Z,102267.66
2023-04-18T20:07:09.897Z,102267.94
2023-04-18T20:09:37.775Z,102264.19
2023-04-18T20:12:05.740Z,102262.91
2023-04-18T20:14:33.579Z,102273.34
2023-04-18T20:17:01.448Z,102265.22
2023-04-18T20:19:30.783Z,102271.25
2023-04-18T20:21:58.644Z,102278.63
2023-04-18T20:24:28.392Z,102274.84
2023-04-18T20:27:13.369Z,102273.44
2023-04-18T20:29:42.333Z,102274.41
2023-04-18T20:32:13.157Z,102283.22
2023-04-18T20:34:43.486Z,102282.41
2023-04-18T20:37:15.589Z,102271.13
2023-04-18T20:39:48.018Z,102269.06
2023-04-18T20:42:19.576Z,102267.97
2023-04-18T20:44:48.509Z,102280.91
2023-04-18T20:47:16.649Z,102282.22
2023-04-18T20:49:47.088Z,102277.13
2023-04-18T20:52:18.063Z,102265.78
2023-04-18T20:54:46.203Z,102269.13
2023-04-18T20:57:14.544Z,102283.25
2023-04-18T20:59:42.684Z,102277.16
2023-04-18T21:02:10.851Z,102274.06
2023-04-18T21:04:38.956Z,102274.59
2023-04-18T21:07:09.360Z,102272.78
2023-04-18T21:09:37.692Z,102286.31
2023-04-18T21:12:09.292Z,102288.38
2023-04-18T21:14:37.715Z,102285.16
2023-04-18T21:17:08.131Z,102282.38
2023-04-18T21:19:36.330Z,102283.81
2023-04-18T21:22:04.874Z,102288.03
2023-04-18T21:24:35.041Z,102292.19
2023-04-18T21:27:08.205Z,102286.63
2023-04-18T21:29:40.174Z,102284.88
2023-04-18T21:32:08.213Z,102293.00
2023-04-18T21:34:36.526Z,102289.03
2023-04-18T21:37:04.623Z,102289.25
2023-04-18T21:39:34.699Z,102290.38
2023-04-18T21:42:03.280Z,102287.63
2023-04-18T21:44:31.904Z,102289.78
2023-04-18T21:47:00.914Z,102289.63
2023-04-18T21:49:29.160Z,102284.91
2023-04-18T21:51:57.201Z,102285.53
2023-04-18T21:54:25.097Z,102292.88
2023-04-18T21:56:54.319Z,102282.78
2023-04-18T21:59:22.375Z,102284.97
2023-04-18T22:01:50.642Z,102279.31
2023-04-18T22:04:21.128Z,102275.19
2023-04-18T22:06:49.139Z,102281.03
2023-04-18T22:09:19.134Z,102281.06
2023-04-18T22:11:47.197Z,102277.19
2023-04-18T22:14:16.642Z,102279.28
2023-04-18T22:16:45.273Z,102285.75
2023-04-18T22:19:14.082Z,102282.75
2023-04-18T22:21:42.875Z,102267.13
2023-04-18T22:24:10.762Z,102275.91
2023-04-18T22:26:38.689Z,102271.63
2023-04-18T22:29:06.574Z,102272.41
2023-04-18T22:31:36.100Z,102273.44
2023-04-18T22:34:04.788Z,102277.59
2023-04-18T22:36:33.015Z,102279.63
2023-04-18T22:39:00.912Z,102285.84
2023-04-18T22:41:28.900Z,102294.06
2023-04-18T22:43:56.729Z,102289.44
2023-04-18T22:46:24.648Z,102285.59
2023-04-18T22:48:54.187Z,102295.69
2023-04-18T22:51:23.442Z,102296.03
2023-04-18T22:53:51.514Z,102290.72
2023-04-18T22:56:19.421Z,102296.75
2023-04-18T22:58:47.473Z,102294.59
2023-04-18T23:01:15.612Z,102294.31
2023-04-18T23:03:43.809Z,102314.34
2023-04-18T23:06:13.529Z,102302.13
2023-04-18T23:08:41.449Z,102303.59
2023-04-18T23:11:10.676Z,102295.91
2023-04-18T23:13:38.582Z,102301.81
2023-04-18T23:16:07.415Z,102302.06
2023-04-18T23:18:35.306Z,102293.88
2023-04-18T23:21:03.048Z,102286.41
2023-04-18T23:23:32.198Z,102284.97
2023-04-18T23:26:00.216Z,102284.59
2023-04-18T23:28:28.155Z,102282.44
2023-04-18T23:30:56.098Z,102282.84
2023-04-18T23:33:24.069Z,102275.19
2023-04-18T23:35:52.045Z,102279.44
2023-04-18T23:38:20.295Z,102279.09
2023-04-18T23:40:49.504Z,102280.41
2023-04-18T23:43:17.589Z,102268.78
2023-04-18T23:45:45.500Z,102286.22
2023-04-18T23:48:13.704Z,102280.22
2023-04-18T23:50:46.167Z,102268.91
2023-04-18T23:53:14.079Z,102266.38
2023-04-18T23:55:41.876Z,102259.31
2023-04-18T23:58:11.311Z,102273.75
